createdAt,value
2019-04-03T00:00:26.830Z,14.65
2019-04-03T00:02:54.093Z,19.27
2019-04-03T00:05:21.722Z,16.10
2019-04-03T00:07:49.033Z,15.48
2019-04-03T00:10:16.281Z,17.15
2019-04-03T00:12:43.895Z,19.20
2019-04-03T00:15:11.701Z,15.30
2019-04-03T00:17:40.359Z,16.97
2019-04-03T00:20:07.647Z,19.87
2019-04-03T00:22:36.044Z,24.82
2019-04-03T00:25:04.291Z,18.23
2019-04-03T00:27:31.521Z,16.37
2019-04-03T00:30:00.455Z,17.65
2019-04-03T00:32:27.663Z,17.98
2019-04-03T00:34:54.926Z,17.80
2019-04-03T00:37:23.256Z,18.95
2019-04-03T00:39:52.458Z,16.67
2019-04-03T00:42:20.174Z,16.32
2019-04-03T00:44:47.705Z,19.27
2019-04-03T00:47:15.001Z,18.07
2019-04-03T00:49:42.234Z,17.52
2019-04-03T00:52:09.550Z,14.47
2019-04-03T00:54:36.766Z,17.45
2019-04-03T00:57:04.016Z,17.42
2019-04-03T00:59:31.662Z,16.17
2019-04-03T01:01:58.939Z,18.35
2019-04-03T01:04:28.313Z,17.10
2019-04-03T01:06:56.578Z,19.32
2019-04-03T01:09:24.428Z,20.62
2019-04-03T01:11:51.700Z,17.48
2019-04-03T01:14:19.003Z,16.77
2019-04-03T01:16:46.233Z,16.55
2019-04-03T01:19:13.516Z,16.80
2019-04-03T01:21:40.811Z,16.73
2019-04-03T01:24:08.549Z,15.58
2019-04-03T01:26:35.887Z,19.80
2019-04-03T01:29:03.225Z,16.32
2019-04-03T01:31:30.442Z,17.27
2019-04-03T01:33:58.131Z,18.40
2019-04-03T01:36:25.412Z,15.88
2019-04-03T01:38:52.731Z,16.02
2019-04-03T01:41:21.301Z,17.60
2019-04-03T01:43:49.000Z,16.17
2019-04-03T01:46:16.255Z,16.15
2019-04-03T01:48:43.507Z,14.70
2019-04-03T01:51:10.937Z,16.32
2019-04-03T01:53:38.153Z,15.53
2019-04-03T01:56:05.412Z,20.12
2019-04-03T01:58:32.925Z,17.62
2019-04-03T02:01:02.159Z,15.05
2019-04-03T02:03:29.370Z,17.15
2019-04-03T02:05:56.865Z,16.77
2019-04-03T02:08:24.070Z,17.00
2019-04-03T02:10:51.303Z,16.95
2019-04-03T02:13:21.213Z,13.65
2019-04-03T02:15:47.658Z,13.50
2019-04-03T02:18:15.108Z,17.02
2019-04-03T02:20:42.420Z,18.55
2019-04-03T02:23:09.681Z,16.73
2019-04-03T02:25:36.912Z,15.95
2019-04-03T02:28:04.574Z,16.40
2019-04-03T02:30:32.775Z,17.07
2019-04-03T02:33:00.169Z,18.17
2019-04-03T02:35:27.449Z,19.50
2019-04-03T02:37:54.730Z,14.98
2019-04-03T02:40:22.999Z,17.35
2019-04-03T02:42:50.320Z,18.23
2019-04-03T02:45:20.469Z,15.95
2019-04-03T02:47:47.602Z,14.58
2019-04-03T02:50:16.685Z,19.23
2019-04-03T02:52:44.020Z,18.50
2019-04-03T02:55:11.333Z,17.87
2019-04-03T02:57:38.688Z,17.75
2019-04-03T03:00:07.205Z,22.00
2019-04-03T03:02:35.591Z,16.73
2019-04-03T03:05:03.880Z,14.60
2019-04-03T03:07:31.112Z,16.23
2019-04-03T03:09:58.355Z,16.65
2019-04-03T03:12:27.817Z,15.48
2019-04-03T03:14:54.932Z,17.15
2019-04-03T03:17:23.515Z,14.98
2019-04-03T03:19:51.495Z,15.70
2019-04-03T03:22:19.022Z,14.07
2019-04-03T03:24:46.307Z,18.55
2019-04-03T03:27:13.657Z,15.48
2019-04-03T03:29:41.221Z,16.20
2019-04-03T03:32:18.284Z,16.75
2019-04-03T03:34:51.530Z,16.60
2019-04-03T03:37:06.796Z,16.50
2019-04-03T03:39:34.137Z,19.02
2019-04-03T03:42:01.942Z,16.40
2019-04-03T03:44:29.239Z,19.80
2019-04-03T03:46:59.770Z,16.17
2019-04-03T03:49:26.699Z,18.12
2019-04-03T03:51:54.052Z,18.52
2019-04-03T03:54:21.489Z,17.25
2019-04-03T03:56:48.776Z,17.12
2019-04-03T03:59:29.860Z,15.85
2019-04-03T04:01:57.158Z,12.82
2019-04-03T04:04:25.162Z,13.45
2019-04-03T04:06:52.729Z,19.45
2019-04-03T04:09:20.068Z,20.90
2019-04-03T04:11:47.455Z,17.55
2019-04-03T04:14:14.982Z,17.00
2019-04-03T04:16:42.548Z,14.00
2019-04-03T04:19:10.057Z,21.65
2019-04-03T04:21:37.462Z,19.60
2019-04-03T04:24:04.744Z,18.82
2019-04-03T04:26:32.388Z,19.92
2019-04-03T04:28:59.650Z,20.97
2019-04-03T04:31:27.015Z,19.92
2019-04-03T04:33:54.251Z,18.32
2019-04-03T04:36:23.483Z,21.10
2019-04-03T04:38:50.754Z,17.90
2019-04-03T04:41:18.380Z,24.57
2019-04-03T04:43:45.619Z,15.30
2019-04-03T04:46:14.201Z,17.15
2019-04-03T04:48:42.420Z,21.82
2019-04-03T04:51:10.684Z,14.55
2019-04-03T04:53:38.065Z,19.85
2019-04-03T04:56:06.496Z,21.10
2019-04-03T04:58:35.587Z,17.87
2019-04-03T05:01:02.900Z,15.80
2019-04-03T05:03:30.197Z,15.83
2019-04-03T05:05:58.575Z,18.52
2019-04-03T05:08:28.026Z,24.57
2019-04-03T05:10:56.118Z,18.73
2019-04-03T05:13:23.320Z,20.10
2019-04-03T05:15:51.823Z,18.32
2019-04-03T05:18:19.638Z,21.48
2019-04-03T05:20:46.859Z,19.48
2019-04-03T05:23:14.483Z,19.87
2019-04-03T05:25:41.701Z,20.82
2019-04-03T05:28:08.949Z,17.80
2019-04-03T05:30:37.747Z,21.23
2019-04-03T05:33:05.262Z,22.98
2019-04-03T05:35:32.587Z,21.23
2019-04-03T05:38:00.567Z,21.20
2019-04-03T05:40:27.795Z,17.57
2019-04-03T05:42:55.065Z,23.75
2019-04-03T05:45:22.897Z,18.80
2019-04-03T05:47:50.101Z,25.70
2019-04-03T05:50:17.348Z,19.92
2019-04-03T05:52:44.733Z,17.87
2019-04-03T05:55:11.994Z,21.35
2019-04-03T05:57:39.259Z,24.37
2019-04-03T06:00:07.460Z,23.50
2019-04-03T06:02:35.410Z,19.87
2019-04-03T06:05:06.066Z,23.60
2019-04-03T06:07:33.718Z,19.87
2019-04-03T06:10:01.549Z,25.35
2019-04-03T06:12:30.040Z,21.17
2019-04-03T06:14:57.527Z,18.95
2019-04-03T06:17:25.064Z,24.60
2019-04-03T06:22:12.468Z,24.10
2019-04-03T06:24:40.243Z,28.47
2019-04-03T06:27:09.591Z,22.93
2019-04-03T06:29:36.728Z,22.82
2019-04-03T06:32:05.782Z,22.25
2019-04-03T06:34:32.995Z,19.77
2019-04-03T06:37:00.659Z,21.33
2019-04-03T06:39:34.791Z,21.95
2019-04-03T06:42:08.381Z,24.40
2019-04-03T06:44:35.647Z,21.68
2019-04-03T06:47:03.539Z,14.18
2019-04-03T06:49:31.121Z,21.10
2019-04-03T06:52:17.051Z,22.42
2019-04-03T06:54:45.172Z,22.35
2019-04-03T06:57:13.886Z,22.13
2019-04-03T06:59:41.769Z,19.10
2019-04-03T07:02:09.561Z,22.52
2019-04-03T07:04:49.719Z,23.25
2019-04-03T07:07:31.740Z,16.48
2019-04-03T07:09:46.379Z,17.70
2019-04-03T07:12:15.586Z,21.60
2019-04-03T07:14:42.887Z,16.60
2019-04-03T07:17:17.382Z,19.45
2019-04-03T07:19:44.772Z,20.10
2019-04-03T07:22:12.132Z,25.37
2019-04-03T07:24:39.820Z,27.85
2019-04-03T07:27:08.278Z,18.98
2019-04-03T07:32:52.791Z,19.60
2019-04-03T07:35:20.397Z,18.17
2019-04-03T07:37:49.013Z,19.75
2019-04-03T07:40:16.949Z,22.25
2019-04-03T07:42:44.367Z,22.82
2019-04-03T07:45:11.627Z,22.52
2019-04-03T07:47:38.912Z,22.32
2019-04-03T07:50:06.145Z,20.57
2019-04-03T07:52:33.373Z,31.52
2019-04-03T07:55:02.206Z,15.25
2019-04-03T07:57:31.437Z,23.20
2019-04-03T07:59:58.760Z,18.70
2019-04-03T08:02:26.041Z,21.85
2019-04-03T08:04:54.222Z,25.60
2019-04-03T08:07:22.598Z,24.07
2019-04-03T08:09:50.085Z,16.77
2019-04-03T08:12:18.421Z,21.52
2019-04-03T08:14:46.400Z,19.55
2019-04-03T08:17:13.691Z,22.10
2019-04-03T08:19:41.498Z,19.40
2019-04-03T08:22:08.773Z,16.77
2019-04-03T08:24:36.206Z,18.30
2019-04-03T08:27:03.705Z,18.52
2019-04-03T08:29:33.483Z,37.70
2019-04-03T08:32:00.702Z,27.52
2019-04-03T08:34:30.747Z,21.45
2019-04-03T08:36:57.315Z,19.80
2019-04-03T08:39:24.625Z,23.22
2019-04-03T08:41:51.865Z,19.42
2019-04-03T08:44:19.129Z,18.55
2019-04-03T08:46:46.468Z,18.67
2019-04-03T08:49:14.087Z,25.92
2019-04-03T08:51:41.460Z,14.73
2019-04-03T08:54:10.298Z,17.00
2019-04-03T08:56:37.763Z,29.48
2019-04-03T08:59:05.049Z,18.32
2019-04-03T09:01:32.461Z,15.50
2019-04-03T09:03:59.768Z,16.27
2019-04-03T09:06:27.089Z,26.17
2019-04-03T09:08:57.840Z,29.05
2019-04-03T09:11:25.730Z,21.50
2019-04-03T09:13:54.862Z,21.75
2019-04-03T09:16:22.366Z,15.93
2019-04-03T09:18:50.045Z,21.60
2019-04-03T09:21:17.447Z,30.50
2019-04-03T09:23:44.882Z,20.50
2019-04-03T09:26:12.086Z,23.25
2019-04-03T09:28:41.306Z,18.60
2019-04-03T09:31:08.494Z,21.37
2019-04-03T09:33:36.903Z,16.77
2019-04-03T09:36:06.280Z,14.50
2019-04-03T09:38:35.457Z,19.55
2019-04-03T09:41:02.972Z,22.42
2019-04-03T09:43:30.217Z,22.90
2019-04-03T09:45:59.320Z,20.25
2019-04-03T09:48:26.694Z,39.63
2019-04-03T09:50:54.349Z,22.40
2019-04-03T09:53:23.937Z,20.00
2019-04-03T09:55:52.447Z,17.05
2019-04-03T09:58:21.267Z,27.17
2019-04-03T10:00:49.172Z,22.52
2019-04-03T10:03:16.410Z,22.10
2019-04-03T10:05:44.642Z,22.32
2019-04-03T10:08:11.922Z,37.53
2019-04-03T10:10:39.151Z,25.60
2019-04-03T10:13:08.052Z,27.17
2019-04-03T10:15:35.305Z,24.98
2019-04-03T10:18:02.557Z,22.77
2019-04-03T10:20:29.826Z,19.12
2019-04-03T10:22:57.427Z,18.25
2019-04-03T10:25:24.929Z,24.55
2019-04-03T10:27:52.526Z,26.97
2019-04-03T10:30:21.537Z,22.13
2019-04-03T10:32:48.959Z,25.60
2019-04-03T10:35:16.316Z,16.00
2019-04-03T10:37:45.699Z,23.60
2019-04-03T10:40:12.611Z,14.98
2019-04-03T10:42:39.839Z,19.73
2019-04-03T10:45:07.250Z,28.57
2019-04-03T10:47:41.325Z,29.07
2019-04-03T10:50:05.781Z,18.80
2019-04-03T10:52:33.146Z,25.82
2019-04-03T10:55:00.359Z,23.12
2019-04-03T10:57:28.031Z,33.63
2019-04-03T10:59:56.796Z,25.02
2019-04-03T11:02:24.373Z,24.95
2019-04-03T11:04:51.854Z,24.02
2019-04-03T11:07:19.245Z,29.07
2019-04-03T11:09:46.644Z,28.15
2019-04-03T11:12:13.937Z,40.60
2019-04-03T11:14:42.491Z,26.70
2019-04-03T11:17:09.760Z,32.23
2019-04-03T11:19:37.402Z,30.82
2019-04-03T11:22:05.467Z,33.67
2019-04-03T11:24:32.771Z,21.65
2019-04-03T11:27:00.301Z,28.75
2019-04-03T11:29:27.651Z,44.35
2019-04-03T11:31:54.871Z,21.80
2019-04-03T11:34:22.124Z,36.58
2019-04-03T11:36:49.385Z,31.15
2019-04-03T11:39:16.872Z,27.42
2019-04-03T11:41:44.491Z,25.12
2019-04-03T11:44:11.914Z,24.43
2019-04-03T11:46:39.133Z,25.12
2019-04-03T11:49:09.170Z,21.82
2019-04-03T11:51:36.489Z,28.35
2019-04-03T11:54:06.877Z,27.73
2019-04-03T11:56:33.657Z,20.77
2019-04-03T11:59:01.787Z,24.60
2019-04-03T12:01:29.027Z,28.90
2019-04-03T12:03:56.257Z,25.45
2019-04-03T12:06:23.539Z,28.85
2019-04-03T12:08:50.803Z,24.72
2019-04-03T12:11:18.262Z,32.42
2019-04-03T12:13:46.298Z,17.00
2019-04-03T12:16:14.267Z,27.02
2019-04-03T12:18:41.766Z,23.38
2019-04-03T12:21:13.960Z,22.73
2019-04-03T12:23:39.846Z,21.27
2019-04-03T12:26:10.507Z,25.12
2019-04-03T12:28:37.282Z,27.17
2019-04-03T12:31:04.560Z,37.53
2019-04-03T12:33:32.193Z,46.05
2019-04-03T12:35:59.617Z,19.55
2019-04-03T12:38:26.806Z,28.73
2019-04-03T12:40:54.580Z,24.98
2019-04-03T12:43:22.050Z,24.85
2019-04-03T12:45:49.280Z,25.05
2019-04-03T12:48:18.296Z,26.27
2019-04-03T12:50:45.973Z,23.25
2019-04-03T12:53:15.762Z,29.25
2019-04-03T12:55:42.974Z,21.10
2019-04-03T12:58:10.915Z,20.35
2019-04-03T13:00:38.549Z,20.00
2019-04-03T13:03:05.772Z,24.60
2019-04-03T13:05:33.072Z,24.63
2019-04-03T13:08:00.398Z,28.98
2019-04-03T13:10:39.201Z,29.23
2019-04-03T13:12:57.202Z,23.75
2019-04-03T13:15:25.846Z,33.67
2019-04-03T13:17:53.386Z,21.10
2019-04-03T13:20:20.681Z,24.37
2019-04-03T13:22:47.909Z,31.02
2019-04-03T13:25:15.216Z,63.40
2019-04-03T13:27:42.919Z,32.25
2019-04-03T13:30:12.407Z,28.65
2019-04-03T13:32:39.675Z,26.85
2019-04-03T13:35:07.087Z,18.52
2019-04-03T13:37:34.307Z,20.72
2019-04-03T13:40:01.676Z,13.78
2019-04-03T13:42:31.694Z,15.43
2019-04-03T13:45:01.386Z,23.73
2019-04-03T13:47:28.642Z,23.02
2019-04-03T13:49:56.253Z,25.68
2019-04-03T13:52:37.867Z,22.42
2019-04-03T13:54:57.081Z,18.87
2019-04-03T13:57:23.688Z,32.13
2019-04-03T13:59:51.566Z,20.27
2019-04-03T14:02:19.789Z,19.95
2019-04-03T14:04:48.945Z,26.95
2019-04-03T14:07:17.161Z,24.47
2019-04-03T14:09:44.384Z,19.07
2019-04-03T14:12:12.066Z,32.73
2019-04-03T14:30:10.239Z,21.12
2019-04-03T14:32:35.679Z,48.57
2019-04-03T14:35:10.976Z,25.20
2019-04-03T14:37:33.056Z,30.68
2019-04-03T14:40:00.347Z,21.00
2019-04-03T14:42:27.586Z,40.78
2019-04-03T14:44:54.884Z,23.05
2019-04-03T14:47:22.780Z,30.25
2019-04-03T14:49:50.684Z,31.02
2019-04-03T14:52:17.977Z,25.27
2019-04-03T14:54:45.237Z,28.12
2019-04-03T14:57:19.551Z,24.95
2019-04-03T14:59:41.605Z,22.90
2019-04-03T15:02:09.210Z,20.10
2019-04-03T15:04:37.596Z,17.52
2019-04-03T15:07:08.620Z,23.65
2019-04-03T15:09:35.524Z,35.23
2019-04-03T15:12:02.756Z,29.25
2019-04-03T15:14:30.030Z,35.78
2019-04-03T15:16:57.666Z,27.32
2019-04-03T15:19:24.950Z,29.02
2019-04-03T15:21:52.687Z,17.00
2019-04-03T15:24:19.948Z,29.50
2019-04-03T15:26:47.189Z,24.57
2019-04-03T15:29:14.535Z,51.10
2019-04-03T15:31:44.825Z,24.55
2019-04-03T15:34:11.511Z,28.15
2019-04-03T15:36:39.004Z,25.15
2019-04-03T15:39:08.586Z,20.97
2019-04-03T15:41:36.246Z,29.27
2019-04-03T15:44:03.776Z,32.85
2019-04-03T15:46:33.957Z,15.50
2019-04-03T15:49:00.919Z,24.82
2019-04-03T15:51:28.756Z,28.30
2019-04-03T15:53:57.025Z,38.02
2019-04-03T15:56:26.080Z,23.18
2019-04-03T15:58:55.450Z,93.80
2019-04-03T16:13:22.146Z,60.35
2019-04-03T16:15:50.026Z,73.45
2019-04-03T16:18:20.179Z,39.53
2019-04-03T16:20:49.078Z,19.65
2019-04-03T16:23:16.507Z,17.75
2019-04-03T16:25:43.755Z,19.92
2019-04-03T16:28:13.011Z,21.45
2019-04-03T16:30:40.083Z,17.82
2019-04-03T16:33:19.052Z,19.15
2019-04-03T16:35:37.404Z,26.60
2019-04-03T16:38:04.718Z,22.07
2019-04-03T16:40:32.370Z,24.07
2019-04-03T16:43:00.046Z,27.25
2019-04-03T16:45:27.368Z,21.55
2019-04-03T16:47:55.211Z,24.75
2019-04-03T16:50:26.144Z,27.87
2019-04-03T16:52:52.952Z,20.15
2019-04-03T16:55:21.649Z,17.85
2019-04-03T16:57:48.925Z,30.68
2019-04-03T17:00:16.140Z,21.23
2019-04-03T17:02:44.835Z,21.05
2019-04-03T17:05:12.563Z,19.80
2019-04-03T17:07:40.420Z,24.98
2019-04-03T17:10:10.008Z,29.20
2019-04-03T17:12:37.107Z,40.48
2019-04-03T17:15:04.743Z,26.75
2019-04-03T17:17:32.778Z,32.50
2019-04-03T17:20:00.225Z,31.90
2019-04-03T17:22:27.434Z,27.13
2019-04-03T17:24:56.424Z,18.73
2019-04-03T17:27:23.738Z,22.58
2019-04-03T17:29:50.988Z,29.63
2019-04-03T17:32:18.451Z,23.75
2019-04-03T17:34:47.513Z,30.30
2019-04-03T17:37:15.195Z,32.40
2019-04-03T17:39:42.486Z,37.63
2019-04-03T17:42:09.769Z,34.03
2019-04-03T17:44:38.439Z,46.48
2019-04-03T17:47:05.887Z,62.83
2019-04-03T17:49:33.163Z,81.22
2019-04-03T17:52:04.742Z,49.35
2019-04-03T17:54:32.850Z,46.00
2019-04-03T17:57:00.256Z,65.42
2019-04-03T17:59:27.472Z,61.35
2019-04-03T18:01:55.250Z,88.72
2019-04-03T18:04:22.476Z,91.35
2019-04-03T18:06:49.708Z,73.10
2019-04-03T18:09:17.556Z,95.07
2019-04-03T18:11:46.773Z,100.67
2019-04-03T18:14:13.791Z,83.00
2019-04-03T18:16:41.666Z,81.05
2019-04-03T18:19:08.894Z,77.58
2019-04-03T18:21:36.121Z,78.55
2019-04-03T18:24:03.463Z,64.92
2019-04-03T18:26:31.146Z,51.88
2019-04-03T18:28:58.381Z,74.53
2019-04-03T18:31:25.641Z,60.10
2019-04-03T18:33:52.850Z,70.20
2019-04-03T18:36:20.424Z,104.40
2019-04-03T18:38:47.725Z,126.47
2019-04-03T18:41:16.763Z,117.82
2019-04-03T18:43:43.923Z,109.92
2019-04-03T18:46:11.205Z,73.80
2019-04-03T18:48:38.404Z,39.70
2019-04-03T18:51:06.826Z,49.20
2019-04-03T18:53:34.105Z,58.35
2019-04-03T18:56:01.384Z,37.65
2019-04-03T18:58:28.585Z,52.20
2019-04-03T19:00:56.198Z,42.03
2019-04-03T19:03:23.808Z,43.23
2019-04-03T19:05:51.074Z,31.55
2019-04-03T19:08:18.798Z,37.67
2019-04-03T19:10:46.672Z,39.90
2019-04-03T19:13:14.563Z,39.35
2019-04-03T19:15:41.975Z,39.90
2019-04-03T19:18:19.292Z,50.73
2019-04-03T19:20:39.801Z,38.75
2019-04-03T19:23:10.844Z,41.20
2019-04-03T19:25:37.766Z,47.62
2019-04-03T19:28:05.068Z,37.78
2019-04-03T19:30:32.365Z,47.60
2019-04-03T19:32:59.921Z,38.53
2019-04-03T19:35:28.377Z,38.78
2019-04-03T19:37:57.260Z,41.45
2019-04-03T19:40:24.480Z,43.42
2019-04-03T19:42:51.732Z,33.50
2019-04-03T19:45:20.663Z,37.85
2019-04-03T19:47:49.235Z,25.45
2019-04-03T19:50:18.386Z,29.55
2019-04-03T19:52:46.632Z,31.82
2019-04-03T19:55:13.882Z,28.80
2019-04-03T19:57:41.174Z,23.87
2019-04-03T20:00:08.693Z,24.20
2019-04-03T20:02:38.220Z,22.00
2019-04-03T20:05:05.904Z,25.95
2019-04-03T20:07:33.133Z,29.00
2019-04-03T20:10:02.754Z,25.65
2019-04-03T20:12:29.575Z,30.27
2019-04-03T20:14:58.293Z,26.35
2019-04-03T20:17:25.830Z,31.90
2019-04-03T20:19:53.135Z,31.48
2019-04-03T20:22:20.349Z,31.10
2019-04-03T20:24:59.232Z,24.27
2019-04-03T20:27:17.162Z,23.77
2019-04-03T20:29:44.390Z,26.95
2019-04-03T20:32:11.673Z,22.55
2019-04-03T20:34:38.939Z,24.10
2019-04-03T20:37:06.191Z,26.05
2019-04-03T20:39:34.806Z,27.20
2019-04-03T20:42:03.456Z,29.37
2019-04-03T20:44:31.620Z,28.12
2019-04-03T20:46:58.885Z,24.92
2019-04-03T20:49:26.164Z,26.50
2019-04-03T20:51:53.407Z,21.75
2019-04-03T20:54:21.352Z,27.35
2019-04-03T20:56:57.511Z,29.10
2019-04-03T20:59:18.353Z,27.30
2019-04-03T21:01:45.585Z,25.12
2019-04-03T21:04:14.818Z,26.80
2019-04-03T21:06:41.979Z,27.25
2019-04-03T21:09:09.204Z,23.05
2019-04-03T21:11:37.767Z,20.85
2019-04-03T21:14:05.836Z,27.60
2019-04-03T21:16:33.619Z,25.88
2019-04-03T21:19:01.995Z,24.77
2019-04-03T21:21:30.338Z,26.33
2019-04-03T21:23:57.555Z,24.18
2019-04-03T21:26:25.341Z,27.02
2019-04-03T21:28:52.562Z,23.27
2019-04-03T21:31:19.793Z,26.17
2019-04-03T21:33:47.656Z,24.52
2019-04-03T21:36:15.291Z,22.30
2019-04-03T21:38:42.513Z,29.40
2019-04-03T21:41:10.078Z,25.70
2019-04-03T21:43:37.348Z,22.17
2019-04-03T21:46:04.590Z,25.35
2019-04-03T21:48:32.441Z,27.48
2019-04-03T21:50:59.821Z,23.42
2019-04-03T21:53:27.244Z,20.37
2019-04-03T21:55:54.516Z,21.62
2019-04-03T21:58:21.738Z,26.42
2019-04-03T22:00:58.517Z,26.95
2019-04-03T22:03:25.988Z,23.35
2019-04-03T22:05:55.672Z,22.65
2019-04-03T22:08:22.345Z,27.32
2019-04-03T22:10:50.499Z,27.87
2019-04-03T22:13:17.993Z,28.38
2019-04-03T22:15:45.920Z,24.12
2019-04-03T22:18:13.583Z,23.55
2019-04-03T22:20:40.807Z,24.98
2019-04-03T22:23:08.072Z,25.85
2019-04-03T22:25:39.270Z,25.72
2019-04-03T22:31:18.475Z,27.30
2019-04-03T22:33:45.685Z,25.30
2019-04-03T22:36:14.952Z,27.37
2019-04-03T22:38:42.276Z,29.67
2019-04-03T22:41:12.136Z,28.85
2019-04-03T22:43:39.110Z,27.52
2019-04-03T22:46:06.387Z,24.72
2019-04-03T22:48:33.606Z,23.32
2019-04-03T22:51:00.904Z,25.02
2019-04-03T22:53:28.181Z,24.05
2019-04-03T22:55:56.489Z,25.95
2019-04-03T22:58:23.856Z,25.90
2019-04-03T23:00:51.129Z,27.80
2019-04-03T23:03:18.339Z,29.65
2019-04-03T23:05:47.731Z,24.07
2019-04-03T23:08:16.869Z,25.88
2019-04-03T23:10:44.131Z,28.90
2019-04-03T23:13:11.893Z,25.70
2019-04-03T23:15:39.422Z,28.07
2019-04-03T23:18:07.121Z,26.35
2019-04-03T23:20:35.347Z,21.97
2019-04-03T23:23:02.621Z,30.55
2019-04-03T23:25:30.257Z,32.05
2019-04-03T23:27:57.450Z,28.07
2019-04-03T23:30:24.739Z,28.30
2019-04-03T23:32:51.941Z,29.27
2019-04-03T23:35:20.572Z,25.92
2019-04-03T23:37:48.243Z,27.02
2019-04-03T23:40:15.456Z,29.80
2019-04-03T23:42:42.747Z,25.02
2019-04-03T23:45:11.046Z,24.95
2019-04-03T23:47:39.564Z,23.95
2019-04-03T23:50:06.784Z,25.30
2019-04-03T23:52:34.464Z,29.52
2019-04-03T23:55:04.438Z,30.62
2019-04-03T23:57:30.706Z,25.15
2019-04-03T23:59:57.972Z,27.27
